Time;durP1;ratioP1;P1;durP2;ratioP2;P2;SDS_P1;SDS_P2;PMS_P1;PMS_P2;Temp;Humidity;BMP_temperature;BMP_pressure;BME280_temperature;BME280_humidity;BME280_pressure;Samples;Min_cycle;Max_cycle;Signal;HPM_P1;HPM_P2
2022/11/21 00:01:47;;;;;;;1.38;1.08;;;;;;;;;;5032629;28;20088;-39
2022/11/21 00:04:12;;;;;;;2.08;0.70;;;;;;;;;;5032652;28;20022;-40
2022/11/21 00:06:38;;;;;;;1.00;0.60;;;;;;;;;;5031353;28;20037;-40
2022/11/21 00:09:03;;;;;;;1.20;0.90;;;;;;;;;;5031371;28;20017;-39
2022/11/21 00:11:29;;;;;;;1.13;0.95;;;;;;;;;;5032483;28;20037;-40
2022/11/21 00:13:54;;;;;;;2.38;0.60;;;;;;;;;;5032585;28;20419;-39
2022/11/21 00:16:19;;;;;;;1.55;0.80;;;;;;;;;;5032541;28;20037;-40
2022/11/21 00:18:45;;;;;;;1.10;0.90;;;;;;;;;;5032424;28;20056;-40
2022/11/21 00:21:12;;;;;;;0.90;0.85;;;;;;;;;;5032692;28;20051;-40
2022/11/21 00:23:37;;;;;;;2.00;0.98;;;;;;;;;;5032384;28;20400;-40
2022/11/21 00:26:07;;;;;;;0.65;0.55;;;;;;;;;;5032328;28;20384;-40
2022/11/21 00:28:32;;;;;;;0.90;0.80;;;;;;;;;;5030817;28;20022;-40
2022/11/21 00:30:58;;;;;;;0.88;0.80;;;;;;;;;;5032438;28;20041;-39
2022/11/21 00:33:23;;;;;;;0.98;0.57;;;;;;;;;;5032199;28;20040;-40
2022/11/21 00:35:48;;;;;;;0.95;0.80;;;;;;;;;;5032028;28;20026;-40
2022/11/21 00:38:14;;;;;;;1.10;1.00;;;;;;;;;;5032015;28;20104;-39
2022/11/21 00:40:41;;;;;;;1.50;1.40;;;;;;;;;;5031893;28;20032;-40
2022/11/21 00:43:06;;;;;;;4.55;1.15;;;;;;;;;;5031961;28;20469;-40
2022/11/21 00:45:32;;;;;;;0.93;0.88;;;;;;;;;;5031842;28;20025;-40
2022/11/21 00:47:57;;;;;;;1.25;1.05;;;;;;;;;;5031859;28;20029;-39
2022/11/21 00:50:23;;;;;;;2.45;1.58;;;;;;;;;;5031954;28;20069;-40
2022/11/21 00:52:48;;;;;;;1.88;1.35;;;;;;;;;;5031612;28;20068;-39
2022/11/21 00:55:14;;;;;;;1.00;0.85;;;;;;;;;;5031862;28;20384;-40
2022/11/21 00:57:39;;;;;;;0.80;0.80;;;;;;;;;;5031906;28;20061;-39
2022/11/21 01:00:05;;;;;;;1.40;1.00;;;;;;;;;;5031678;28;20037;-39
2022/11/21 01:02:31;;;;;;;1.75;1.20;;;;;;;;;;5031932;28;20026;-40
2022/11/21 01:04:56;;;;;;;0.63;0.63;;;;;;;;;;5031982;28;20097;-40
2022/11/21 01:07:21;;;;;;;2.15;1.75;;;;;;;;;;5031511;28;20029;-40
2022/11/21 01:09:47;;;;;;;4.05;1.67;;;;;;;;;;5031814;28;20097;-40
2022/11/21 01:12:12;;;;;;;2.60;1.42;;;;;;;;;;5031508;28;20013;-40
2022/11/21 01:14:37;;;;;;;1.52;1.42;;;;;;;;;;5032039;28;20467;-39
2022/11/21 01:17:03;;;;;;;1.60;1.45;;;;;;;;;;5030359;28;20536;-40
2022/11/21 01:19:28;;;;;;;2.92;1.27;;;;;;;;;;5031617;28;20034;-40
2022/11/21 01:21:54;;;;;;;2.05;1.50;;;;;;;;;;5031491;28;20472;-40
2022/11/21 01:24:19;;;;;;;2.55;2.35;;;;;;;;;;5030131;28;20033;-40
2022/11/21 01:26:44;;;;;;;1.50;0.90;;;;;;;;;;5031358;28;20022;-39
2022/11/21 01:29:10;;;;;;;1.05;1.00;;;;;;;;;;5031406;28;20040;-40
2022/11/21 01:31:35;;;;;;;1.80;1.10;;;;;;;;;;5031475;28;20017;-39
2022/11/21 01:34:01;;;;;;;1.15;0.88;;;;;;;;;;5030036;28;20655;-40
2022/11/21 01:36:30;;;;;;;1.38;1.10;;;;;;;;;;5031488;28;20013;-39
2022/11/21 01:38:58;;;;;;;1.67;1.05;;;;;;;;;;5031229;28;20041;-39
2022/11/21 01:41:38;;;;;;;1.45;0.95;;;;;;;;;;5031257;28;20067;-39
2022/11/21 01:44:12;;;;;;;2.42;1.17;;;;;;;;;;5031157;28;20452;-40
2022/11/21 01:46:37;;;;;;;4.22;1.48;;;;;;;;;;5031451;28;20037;-40
2022/11/21 01:49:05;;;;;;;1.70;0.98;;;;;;;;;;5031007;28;20411;-40
2022/11/21 01:51:39;;;;;;;4.38;1.55;;;;;;;;;;5031159;28;20029;-40
2022/11/21 01:54:17;;;;;;;2.13;1.30;;;;;;;;;;5031307;28;20025;-40
2022/11/21 01:56:42;;;;;;;2.67;1.17;;;;;;;;;;5030950;28;20033;-40
2022/11/21 01:59:10;;;;;;;1.90;1.10;;;;;;;;;;5031431;28;20029;-40
2022/11/21 02:01:36;;;;;;;0.80;0.80;;;;;;;;;;5031015;28;20080;-39
2022/11/21 02:04:02;;;;;;;1.25;1.10;;;;;;;;;;5033120;28;20033;-40
2022/11/21 02:06:28;;;;;;;5.25;2.35;;;;;;;;;;5035119;28;20625;-40
2022/11/21 02:08:54;;;;;;;1.75;0.80;;;;;;;;;;5034958;28;20052;-40
2022/11/21 02:11:35;;;;;;;1.70;1.33;;;;;;;;;;5034678;28;20030;-40
2022/11/21 02:14:00;;;;;;;2.15;1.20;;;;;;;;;;5035008;28;20033;-39
2022/11/21 02:16:26;;;;;;;1.42;0.73;;;;;;;;;;5034773;28;20100;-40
2022/11/21 02:18:51;;;;;;;2.15;1.15;;;;;;;;;;5034702;28;20053;-39
2022/11/21 02:21:46;;;;;;;1.73;1.17;;;;;;;;;;5034921;28;20029;-39
2022/11/21 02:24:24;;;;;;;1.33;0.95;;;;;;;;;;5033750;28;20083;-39
2022/11/21 02:26:49;;;;;;;2.30;1.40;;;;;;;;;;5033244;28;20060;-39
2022/11/21 02:29:15;;;;;;;2.03;1.10;;;;;;;;;;5034517;28;20025;-39
2022/11/21 02:31:40;;;;;;;1.88;0.90;;;;;;;;;;5034205;28;20029;-39
2022/11/21 02:34:05;;;;;;;1.45;0.73;;;;;;;;;;5034509;28;20045;-39
2022/11/21 02:36:31;;;;;;;2.22;1.45;;;;;;;;;;5034298;28;20144;-40
2022/11/21 02:38:56;;;;;;;1.08;0.98;;;;;;;;;;5034343;28;20368;-40
2022/11/21 02:41:25;;;;;;;3.47;0.90;;;;;;;;;;5034304;28;20036;-39
2022/11/21 02:43:54;;;;;;;1.67;1.00;;;;;;;;;;5034035;28;20482;-40
2022/11/21 02:46:19;;;;;;;1.80;1.20;;;;;;;;;;5034182;28;20483;-40
2022/11/21 02:48:45;;;;;;;2.53;1.52;;;;;;;;;;5034108;28;20057;-40
2022/11/21 02:51:10;;;;;;;2.13;1.27;;;;;;;;;;5034457;28;20157;-39
2022/11/21 02:53:36;;;;;;;4.03;1.00;;;;;;;;;;5034210;28;20399;-40
2022/11/21 02:56:01;;;;;;;1.13;1.02;;;;;;;;;;5034288;28;20052;-40
2022/11/21 02:58:26;;;;;;;1.42;0.90;;;;;;;;;;5033899;28;20041;-39
2022/11/21 03:00:54;;;;;;;2.00;1.00;;;;;;;;;;5033989;28;20036;-40
2022/11/21 03:03:19;;;;;;;1.58;1.27;;;;;;;;;;5032471;28;20582;-39
2022/11/21 03:05:44;;;;;;;1.15;0.90;;;;;;;;;;5033877;28;20133;-40
2022/11/21 03:08:10;;;;;;;0.98;0.88;;;;;;;;;;5032382;28;20053;-40
2022/11/21 03:10:36;;;;;;;1.08;0.70;;;;;;;;;;5033610;28;20030;-39
2022/11/21 03:13:01;;;;;;;1.98;1.00;;;;;;;;;;5034043;28;20028;-39
2022/11/21 03:15:28;;;;;;;1.48;0.80;;;;;;;;;;5032327;28;20025;-39
2022/11/21 03:17:53;;;;;;;0.85;0.75;;;;;;;;;;5033881;28;20029;-40
2022/11/21 03:20:19;;;;;;;0.88;0.77;;;;;;;;;;5033806;28;20032;-40
2022/11/21 03:22:44;;;;;;;0.77;0.60;;;;;;;;;;5033668;28;20072;-40
2022/11/21 03:25:09;;;;;;;1.23;0.80;;;;;;;;;;5033518;28;20079;-40
2022/11/21 03:27:35;;;;;;;1.55;1.10;;;;;;;;;;5033591;28;20025;-40
2022/11/21 03:30:00;;;;;;;1.77;1.50;;;;;;;;;;5033398;28;20033;-39
2022/11/21 03:32:25;;;;;;;1.70;0.75;;;;;;;;;;5033346;28;20067;-40
2022/11/21 03:34:51;;;;;;;1.35;1.00;;;;;;;;;;5033200;28;20026;-39
2022/11/21 03:37:16;;;;;;;1.40;1.15;;;;;;;;;;5033488;28;20040;-40
2022/11/21 03:39:41;;;;;;;1.63;1.05;;;;;;;;;;5033368;28;20087;-40
2022/11/21 03:42:07;;;;;;;1.67;1.38;;;;;;;;;;5033343;28;20392;-40
2022/11/21 03:44:32;;;;;;;1.77;1.27;;;;;;;;;;5033348;28;20025;-40
2022/11/21 03:46:58;;;;;;;1.63;1.00;;;;;;;;;;5031942;28;20464;-40
2022/11/21 03:49:23;;;;;;;1.65;0.95;;;;;;;;;;5032863;28;20057;-40
2022/11/21 03:51:48;;;;;;;1.05;0.93;;;;;;;;;;5032849;28;20029;-40
2022/11/21 03:54:14;;;;;;;1.95;0.93;;;;;;;;;;5033207;28;20057;-39
2022/11/21 03:56:39;;;;;;;1.98;1.05;;;;;;;;;;5032942;28;20017;-40
2022/11/21 03:59:05;;;;;;;1.88;0.98;;;;;;;;;;5032786;28;20040;-40
2022/11/21 04:01:31;;;;;;;2.20;1.23;;;;;;;;;;5032701;28;20036;-39
2022/11/21 04:03:56;;;;;;;1.75;0.90;;;;;;;;;;5032671;28;20033;-40
2022/11/21 04:06:22;;;;;;;3.67;1.27;;;;;;;;;;5032680;28;20035;-40
2022/11/21 04:08:48;;;;;;;1.25;1.02;;;;;;;;;;5032667;28;20057;-39
2022/11/21 04:11:13;;;;;;;3.45;1.77;;;;;;;;;;5032776;28;20024;-40
2022/11/21 04:13:38;;;;;;;3.28;1.52;;;;;;;;;;5032449;28;20452;-39
2022/11/21 04:16:04;;;;;;;1.42;1.00;;;;;;;;;;5032534;28;20025;-39
2022/11/21 04:18:30;;;;;;;0.75;0.75;;;;;;;;;;5032241;28;20045;-40
2022/11/21 04:20:59;;;;;;;0.88;0.82;;;;;;;;;;5032750;28;20025;-40
2022/11/21 04:23:25;;;;;;;1.90;1.13;;;;;;;;;;5032277;28;20655;-39
2022/11/21 04:25:50;;;;;;;2.53;1.05;;;;;;;;;;5031890;28;20105;-39
2022/11/21 04:28:16;;;;;;;2.28;1.00;;;;;;;;;;5032570;28;20112;-39
2022/11/21 04:30:41;;;;;;;0.75;0.75;;;;;;;;;;5032385;28;20018;-40
2022/11/21 04:33:07;;;;;;;1.40;0.80;;;;;;;;;;5032060;28;20033;-39
2022/11/21 04:35:32;;;;;;;1.65;0.77;;;;;;;;;;5032117;28;20029;-39
2022/11/21 04:37:57;;;;;;;1.33;0.63;;;;;;;;;;5030859;28;20033;-39
2022/11/21 04:40:23;;;;;;;1.20;0.60;;;;;;;;;;5032136;28;20504;-40
2022/11/21 04:42:48;;;;;;;0.52;0.50;;;;;;;;;;5032194;28;20072;-39
2022/11/21 04:45:14;;;;;;;1.20;0.65;;;;;;;;;;5032316;28;20471;-39
2022/11/21 04:47:41;;;;;;;1.13;0.70;;;;;;;;;;5031910;28;20205;-40
2022/11/21 04:50:07;;;;;;;1.10;0.80;;;;;;;;;;5031776;28;20064;-40
2022/11/21 04:52:32;;;;;;;0.68;0.60;;;;;;;;;;5031788;28;20072;-40
2022/11/21 04:54:58;;;;;;;0.85;0.85;;;;;;;;;;5031938;28;20072;-39
2022/11/21 04:57:24;;;;;;;1.42;0.82;;;;;;;;;;5031761;28;20041;-40
2022/11/21 04:59:50;;;;;;;1.85;0.70;;;;;;;;;;5031710;28;20083;-39
2022/11/21 05:02:15;;;;;;;0.68;0.68;;;;;;;;;;5031602;28;20044;-39
2022/11/21 05:04:40;;;;;;;0.77;0.77;;;;;;;;;;5031676;28;20029;-39
2022/11/21 05:07:06;;;;;;;1.85;1.00;;;;;;;;;;5031601;28;20482;-40
2022/11/21 05:09:31;;;;;;;0.80;0.60;;;;;;;;;;5031794;28;20021;-39
2022/11/21 05:14:41;;;;;;;1.70;0.95;;;;;;;;;;5031497;28;20529;-39
2022/11/21 05:17:06;;;;;;;1.63;0.90;;;;;;;;;;5031743;28;20026;-40
2022/11/21 05:19:31;;;;;;;0.47;0.40;;;;;;;;;;5031633;28;20044;-39
2022/11/21 05:21:57;;;;;;;0.82;0.82;;;;;;;;;;5031340;28;20025;-40
2022/11/21 05:24:22;;;;;;;1.20;1.10;;;;;;;;;;5031422;28;20056;-39
2022/11/21 05:26:48;;;;;;;1.60;1.23;;;;;;;;;;5031366;28;20464;-40
2022/11/21 05:29:13;;;;;;;1.70;0.82;;;;;;;;;;5031673;28;20083;-40
2022/11/21 05:31:38;;;;;;;1.63;0.73;;;;;;;;;;5031185;28;20022;-40
2022/11/21 05:34:04;;;;;;;3.03;1.23;;;;;;;;;;5031617;28;20384;-40
2022/11/21 05:36:30;;;;;;;2.40;1.27;;;;;;;;;;5031170;28;20072;-39
2022/11/21 05:38:55;;;;;;;1.58;1.13;;;;;;;;;;5033435;28;20053;-40
2022/11/21 05:41:21;;;;;;;1.25;0.88;;;;;;;;;;5035505;28;20048;-40
2022/11/21 05:43:46;;;;;;;2.42;1.02;;;;;;;;;;5035181;28;20457;-40
2022/11/21 05:46:15;;;;;;;1.77;0.93;;;;;;;;;;5034454;28;20074;-39
2022/11/21 05:48:41;;;;;;;2.72;1.23;;;;;;;;;;5035252;28;20037;-40
2022/11/21 05:51:06;;;;;;;1.25;0.70;;;;;;;;;;5035195;28;20033;-39
2022/11/21 05:53:32;;;;;;;1.27;1.17;;;;;;;;;;5035168;28;20049;-39
2022/11/21 05:56:03;;;;;;;0.82;0.80;;;;;;;;;;5035390;28;20107;-39
2022/11/21 05:58:28;;;;;;;2.10;0.90;;;;;;;;;;5034964;28;20037;-40
2022/11/21 06:00:57;;;;;;;1.92;1.27;;;;;;;;;;5035053;28;20021;-40
2022/11/21 06:03:26;;;;;;;1.83;0.82;;;;;;;;;;5035008;28;20108;-40
2022/11/21 06:06:01;;;;;;;1.38;1.13;;;;;;;;;;5035103;28;20048;-40
2022/11/21 06:08:28;;;;;;;1.70;1.08;;;;;;;;;;5034923;28;20533;-39
2022/11/21 06:10:53;;;;;;;1.10;0.68;;;;;;;;;;5035102;28;20064;-39
2022/11/21 06:13:21;;;;;;;1.52;0.95;;;;;;;;;;5034694;28;20033;-39
2022/11/21 06:16:04;;;;;;;0.80;0.80;;;;;;;;;;5034808;28;20072;-40
2022/11/21 06:18:31;;;;;;;0.93;0.80;;;;;;;;;;5034578;28;20034;-40
2022/11/21 06:21:04;;;;;;;3.50;0.95;;;;;;;;;;5034950;28;20013;-39
2022/11/21 06:23:30;;;;;;;0.80;0.73;;;;;;;;;;5034867;28;20463;-39
2022/11/21 06:25:59;;;;;;;1.00;0.80;;;;;;;;;;5034448;28;20065;-39
2022/11/21 06:28:25;;;;;;;1.75;0.95;;;;;;;;;;5034553;28;20521;-39
2022/11/21 06:30:51;;;;;;;0.50;0.50;;;;;;;;;;5034480;28;20060;-39
2022/11/21 06:33:17;;;;;;;0.32;0.32;;;;;;;;;;5033138;28;20060;-40
2022/11/21 06:35:43;;;;;;;0.77;0.57;;;;;;;;;;5034355;28;20029;-40
2022/11/21 06:38:09;;;;;;;1.60;0.68;;;;;;;;;;5034344;28;20038;-39
2022/11/21 06:40:34;;;;;;;1.90;1.60;;;;;;;;;;5034317;28;20045;-39
2022/11/21 06:43:00;;;;;;;0.63;0.60;;;;;;;;;;5034305;28;20056;-39
2022/11/21 06:45:26;;;;;;;2.72;1.23;;;;;;;;;;5034296;28;20026;-39
2022/11/21 06:47:51;;;;;;;2.45;1.23;;;;;;;;;;5033991;28;20037;-39
2022/11/21 06:50:17;;;;;;;1.08;0.85;;;;;;;;;;5033797;28;20045;-39
2022/11/21 06:52:42;;;;;;;1.73;0.90;;;;;;;;;;5034285;28;20048;-39
2022/11/21 06:55:08;;;;;;;2.97;1.20;;;;;;;;;;5033962;28;20100;-40
2022/11/21 06:57:35;;;;;;;0.60;0.60;;;;;;;;;;5032670;28;20045;-40
2022/11/21 07:00:01;;;;;;;2.47;0.80;;;;;;;;;;5033962;28;20056;-39
2022/11/21 07:02:26;;;;;;;0.82;0.60;;;;;;;;;;5033919;28;20045;-39
2022/11/21 07:04:52;;;;;;;0.73;0.52;;;;;;;;;;5033833;28;20018;-39
2022/11/21 07:07:18;;;;;;;0.65;0.60;;;;;;;;;;5033822;28;20040;-39
2022/11/21 07:09:43;;;;;;;1.20;0.80;;;;;;;;;;5033728;28;20032;-39
2022/11/21 07:14:53;;;;;;;1.88;1.05;;;;;;;;;;5033785;28;20063;-40
2022/11/21 07:17:18;;;;;;;1.35;0.70;;;;;;;;;;5033485;28;20052;-39
2022/11/21 07:19:44;;;;;;;1.40;0.70;;;;;;;;;;5033602;28;20204;-40
2022/11/21 07:22:09;;;;;;;2.15;1.00;;;;;;;;;;5033596;28;20023;-39
2022/11/21 07:24:35;;;;;;;1.23;1.10;;;;;;;;;;5033436;28;20535;-39
2022/11/21 07:27:00;;;;;;;1.23;1.00;;;;;;;;;;5033776;28;20021;-40
2022/11/21 07:29:26;;;;;;;1.20;1.10;;;;;;;;;;5033405;28;20034;-39
2022/11/21 07:31:51;;;;;;;2.17;1.30;;;;;;;;;;5033213;28;20052;-39
2022/11/21 07:34:17;;;;;;;2.78;1.50;;;;;;;;;;5033356;28;20029;-40
2022/11/21 07:36:42;;;;;;;2.10;1.10;;;;;;;;;;5033353;28;20021;-39
2022/11/21 07:39:07;;;;;;;2.75;1.50;;;;;;;;;;5032065;28;20029;-40
2022/11/21 07:41:33;;;;;;;2.78;1.77;;;;;;;;;;5033101;28;20368;-41
2022/11/21 07:43:58;;;;;;;2.67;1.85;;;;;;;;;;5033110;28;20137;-39
2022/11/21 07:46:23;;;;;;;2.60;1.27;;;;;;;;;;5033186;28;20096;-40
2022/11/21 07:48:49;;;;;;;8.85;1.10;;;;;;;;;;5032776;28;20072;-39
2022/11/21 07:51:15;;;;;;;7.45;1.60;;;;;;;;;;5033250;28;20076;-39
2022/11/21 07:53:40;;;;;;;1.90;1.05;;;;;;;;;;5031719;28;20538;-39
2022/11/21 07:56:08;;;;;;;1.90;1.10;;;;;;;;;;5032924;28;20482;-39
2022/11/21 07:58:33;;;;;;;1.23;1.13;;;;;;;;;;5032771;28;20484;-39
2022/11/21 08:01:02;;;;;;;0.90;0.57;;;;;;;;;;5030883;28;20022;-39
2022/11/21 08:03:27;;;;;;;0.85;0.73;;;;;;;;;;5032836;28;20468;-39
2022/11/21 08:05:52;;;;;;;1.08;0.77;;;;;;;;;;5032932;28;20056;-39
2022/11/21 08:08:18;;;;;;;0.60;0.50;;;;;;;;;;5032698;28;20383;-39
2022/11/21 08:10:44;;;;;;;0.68;0.68;;;;;;;;;;5032670;28;20021;-39
2022/11/21 08:13:10;;;;;;;0.52;0.50;;;;;;;;;;5031200;28;20037;-39
2022/11/21 08:15:36;;;;;;;1.00;0.80;;;;;;;;;;5032699;28;20051;-39
2022/11/21 08:18:08;;;;;;;0.68;0.68;;;;;;;;;;5032828;28;20116;-39
2022/11/21 08:20:33;;;;;;;0.60;0.60;;;;;;;;;;5032415;28;20030;-39
2022/11/21 08:22:59;;;;;;;3.50;0.63;;;;;;;;;;5032751;28;20113;-39
2022/11/21 08:25:24;;;;;;;0.73;0.60;;;;;;;;;;5032417;28;20537;-40
2022/11/21 08:27:50;;;;;;;0.80;0.77;;;;;;;;;;5032288;28;20018;-39
2022/11/21 08:30:15;;;;;;;1.10;0.80;;;;;;;;;;5032335;28;20025;-39
2022/11/21 08:32:41;;;;;;;0.55;0.55;;;;;;;;;;5032364;28;20022;-39
2022/11/21 08:35:06;;;;;;;0.60;0.60;;;;;;;;;;5032212;28;20022;-39
2022/11/21 08:37:32;;;;;;;1.05;0.80;;;;;;;;;;5032158;28;20071;-39
2022/11/21 08:40:01;;;;;;;1.90;0.52;;;;;;;;;;5031919;28;20483;-39
2022/11/21 08:42:26;;;;;;;0.55;0.52;;;;;;;;;;5032018;28;20029;-39
2022/11/21 08:44:52;;;;;;;1.23;0.50;;;;;;;;;;5031913;28;20390;-39
2022/11/21 08:47:19;;;;;;;0.73;0.73;;;;;;;;;;5032256;28;20017;-39
2022/11/21 08:49:44;;;;;;;0.52;0.50;;;;;;;;;;5031726;28;20128;-39
2022/11/21 08:52:10;;;;;;;0.38;0.38;;;;;;;;;;5031917;28;20113;-40
2022/11/21 08:54:35;;;;;;;0.55;0.55;;;;;;;;;;5031823;28;20087;-40
2022/11/21 08:57:01;;;;;;;1.73;0.70;;;;;;;;;;5031664;28;20056;-39
2022/11/21 08:59:26;;;;;;;0.70;0.70;;;;;;;;;;5031861;28;20044;-39
2022/11/21 09:01:52;;;;;;;0.65;0.50;;;;;;;;;;5031634;28;20025;-39
2022/11/21 09:04:17;;;;;;;1.40;0.75;;;;;;;;;;5031660;28;20082;-39
2022/11/21 09:06:43;;;;;;;0.50;0.50;;;;;;;;;;5031661;28;20053;-39
2022/11/21 09:09:08;;;;;;;1.25;0.55;;;;;;;;;;5031893;28;20095;-39
2022/11/21 09:11:35;;;;;;;0.40;0.30;;;;;;;;;;5031845;28;20529;-39
2022/11/21 09:19:29;;;;;;;0.35;0.32;;;;;;;;;;5031514;28;20525;-39
2022/11/21 09:21:54;;;;;;;0.40;0.40;;;;;;;;;;5031439;28;20025;-38
2022/11/21 09:24:20;;;;;;;1.10;1.00;;;;;;;;;;5031646;28;20033;-40
2022/11/21 09:26:45;;;;;;;0.70;0.70;;;;;;;;;;5031901;28;20345;-39
2022/11/21 09:29:13;;;;;;;0.28;0.28;;;;;;;;;;5031738;28;20430;-39
2022/11/21 09:31:39;;;;;;;1.27;0.75;;;;;;;;;;5031476;28;20018;-39
2022/11/21 09:34:05;;;;;;;0.30;0.30;;;;;;;;;;5031371;28;20438;-39
2022/11/21 09:36:30;;;;;;;0.38;0.38;;;;;;;;;;5031919;28;20021;-39
2022/11/21 09:38:56;;;;;;;0.80;0.70;;;;;;;;;;5031071;28;20042;-39
2022/11/21 09:44:40;;;;;;;0.55;0.55;;;;;;;;;;5068755;28;20033;-39
2022/11/21 09:47:25;;;;;;;0.50;0.50;;;;;;;;;;5034349;28;20057;-39
2022/11/21 09:49:54;;;;;;;0.43;0.43;;;;;;;;;;5029775;28;20103;-39
2022/11/21 09:52:21;;;;;;;0.73;0.73;;;;;;;;;;5031677;28;20425;-39
2022/11/21 09:54:52;;;;;;;0.75;0.60;;;;;;;;;;5031067;28;20435;-39
2022/11/21 09:57:20;;;;;;;0.43;0.40;;;;;;;;;;5031114;28;20041;-40
2022/11/21 09:59:46;;;;;;;0.75;0.47;;;;;;;;;;5029834;28;20633;-39
2022/11/21 10:02:16;;;;;;;0.43;0.43;;;;;;;;;;5031066;28;20124;-39
2022/11/21 10:04:42;;;;;;;1.15;0.50;;;;;;;;;;5031326;28;20021;-40
2022/11/21 10:07:11;;;;;;;0.50;0.40;;;;;;;;;;5030929;28;20052;-40
2022/11/21 10:09:43;;;;;;;0.57;0.57;;;;;;;;;;5030972;28;20026;-40
2022/11/21 10:15:05;;;;;;;0.50;0.50;;;;;;;;;;5030971;28;20033;-40
2022/11/21 10:17:31;;;;;;;0.65;0.65;;;;;;;;;;5031128;28;20041;-40
2022/11/21 10:20:05;;;;;;;1.65;0.82;;;;;;;;;;5031158;28;20032;-40
2022/11/21 10:22:31;;;;;;;1.23;0.73;;;;;;;;;;5030782;28;20034;-40
2022/11/21 10:25:02;;;;;;;1.85;0.82;;;;;;;;;;5032609;28;20052;-39
2022/11/21 10:27:40;;;;;;;0.28;0.28;;;;;;;;;;5034592;28;20086;-39
2022/11/21 10:30:12;;;;;;;0.80;0.60;;;;;;;;;;5034513;28;20576;-40
2022/11/21 10:32:39;;;;;;;0.53;0.53;;;;;;;;;;5034369;28;20032;-40
2022/11/21 10:35:14;;;;;;;0.38;0.38;;;;;;;;;;5034505;28;20033;-39
2022/11/21 10:37:44;;;;;;;0.88;0.50;;;;;;;;;;5034443;28;20040;-41
2022/11/21 10:40:12;;;;;;;1.27;0.47;;;;;;;;;;5034401;28;20087;-40
2022/11/21 10:42:41;;;;;;;1.33;0.50;;;;;;;;;;5034116;28;20065;-40
2022/11/21 10:45:16;;;;;;;0.60;0.40;;;;;;;;;;5034370;28;20033;-39
2022/11/21 10:47:41;;;;;;;0.45;0.45;;;;;;;;;;5034217;28;20112;-40
2022/11/21 10:50:27;;;;;;;0.50;0.50;;;;;;;;;;5033957;28;20128;-39
2022/11/21 10:54:31;;;;;;;0.43;0.40;;;;;;;;;;5034230;28;20029;-39
2022/11/21 10:55:56;;;;;;;0.52;0.50;;;;;;;;;;5032662;28;20037;-40
2022/11/21 10:58:32;;;;;;;0.30;0.30;;;;;;;;;;5034022;28;20072;-40
2022/11/21 11:00:57;;;;;;;1.25;0.30;;;;;;;;;;5033906;28;20021;-40
2022/11/21 11:03:24;;;;;;;0.20;0.20;;;;;;;;;;5033884;28;20376;-39
2022/11/21 11:05:55;;;;;;;0.20;0.20;;;;;;;;;;5033797;28;20049;-39
2022/11/21 11:08:20;;;;;;;0.43;0.43;;;;;;;;;;5033785;28;20030;-40
2022/11/21 11:11:00;;;;;;;0.52;0.45;;;;;;;;;;5034017;28;20017;-40
2022/11/21 11:13:35;;;;;;;0.60;0.30;;;;;;;;;;5033965;28;20033;-40
2022/11/21 11:16:09;;;;;;;0.35;0.35;;;;;;;;;;5033674;28;20033;-40
2022/11/21 11:18:55;;;;;;;0.28;0.28;;;;;;;;;;5033525;28;20496;-39
2022/11/21 11:21:22;;;;;;;0.45;0.45;;;;;;;;;;5032812;28;20033;-40
2022/11/21 11:23:48;;;;;;;0.30;0.30;;;;;;;;;;5032619;28;20018;-40
2022/11/21 11:26:20;;;;;;;0.88;0.52;;;;;;;;;;5033824;28;20388;-39
2022/11/21 11:28:45;;;;;;;0.20;0.20;;;;;;;;;;5033437;28;20025;-39
2022/11/21 11:31:11;;;;;;;0.43;0.30;;;;;;;;;;5033491;28;20380;-40
2022/11/21 11:33:36;;;;;;;0.30;0.30;;;;;;;;;;5033295;28;20091;-41
2022/11/21 11:36:20;;;;;;;0.30;0.30;;;;;;;;;;5032312;28;20048;-40
2022/11/21 11:38:51;;;;;;;0.30;0.30;;;;;;;;;;5033316;28;20049;-39
2022/11/21 11:41:22;;;;;;;0.20;0.20;;;;;;;;;;5031946;28;20528;-39
2022/11/21 11:50:09;;;;;;;0.50;0.50;;;;;;;;;;5032945;28;20053;-40
2022/11/21 11:52:21;;;;;;;0.30;0.30;;;;;;;;;;5032915;28;20034;-39
2022/11/21 11:54:49;;;;;;;0.30;0.30;;;;;;;;;;5031638;28;20036;-39
2022/11/21 11:57:15;;;;;;;0.47;0.20;;;;;;;;;;5032885;28;20124;-40
2022/11/21 11:59:45;;;;;;;0.55;0.40;;;;;;;;;;5032884;28;20024;-40
2022/11/21 12:02:19;;;;;;;0.20;0.20;;;;;;;;;;5032661;28;20060;-40
2022/11/21 12:04:47;;;;;;;0.85;0.50;;;;;;;;;;5032833;28;20029;-39
2022/11/21 12:07:20;;;;;;;0.32;0.32;;;;;;;;;;5032717;28;20112;-40
2022/11/21 12:09:57;;;;;;;0.40;0.40;;;;;;;;;;5031434;28;20039;-40
2022/11/21 12:12:35;;;;;;;0.38;0.38;;;;;;;;;;5032895;28;20442;-40
2022/11/21 12:18:03;;;;;;;0.45;0.45;;;;;;;;;;5032829;28;20046;-40
2022/11/21 12:20:33;;;;;;;0.20;0.20;;;;;;;;;;5032521;28;20506;-41
2022/11/21 12:22:58;;;;;;;0.90;0.40;;;;;;;;;;5032545;28;20045;-39
2022/11/21 12:25:32;;;;;;;0.43;0.30;;;;;;;;;;5032461;28;20023;-39
2022/11/21 12:27:58;;;;;;;0.75;0.45;;;;;;;;;;5032288;28;20063;-40
2022/11/21 12:30:44;;;;;;;1.92;0.52;;;;;;;;;;5032361;28;20096;-39
2022/11/21 12:33:09;;;;;;;0.60;0.38;;;;;;;;;;5032306;28;20511;-39
2022/11/21 12:35:35;;;;;;;0.50;0.50;;;;;;;;;;5032210;28;20018;-39
2022/11/21 12:38:06;;;;;;;0.57;0.52;;;;;;;;;;5032244;28;20467;-39
2022/11/21 12:42:48;;;;;;;1.30;0.50;;;;;;;;;;5032451;28;20415;-40
2022/11/21 12:44:14;;;;;;;0.30;0.30;;;;;;;;;;5012888;28;20049;-40
2022/11/21 12:46:43;;;;;;;0.47;0.40;;;;;;;;;;5029417;28;20040;-39
2022/11/21 12:54:43;;;;;;;0.50;0.50;;;;;;;;;;5032135;28;20116;-39
2022/11/21 12:57:15;;;;;;;0.30;0.30;;;;;;;;;;5031657;28;20056;-39
2022/11/21 12:59:44;;;;;;;0.50;0.40;;;;;;;;;;5031883;28;20112;-39
2022/11/21 13:02:27;;;;;;;0.40;0.35;;;;;;;;;;5030515;28;20025;-39
2022/11/21 13:04:54;;;;;;;0.57;0.57;;;;;;;;;;5030453;28;20029;-39
2022/11/21 13:07:21;;;;;;;0.55;0.50;;;;;;;;;;5031903;28;20022;-39
2022/11/21 13:09:48;;;;;;;0.40;0.40;;;;;;;;;;5030673;28;20029;-40
2022/11/21 13:12:19;;;;;;;0.75;0.63;;;;;;;;;;5031854;28;20036;-39
2022/11/21 13:15:04;;;;;;;0.73;0.32;;;;;;;;;;5031580;28;20030;-39
2022/11/21 13:17:30;;;;;;;0.50;0.50;;;;;;;;;;5030711;28;20480;-43
2022/11/21 13:19:58;;;;;;;1.00;0.63;;;;;;;;;;5031753;28;20079;-40
2022/11/21 13:22:36;;;;;;;1.02;0.40;;;;;;;;;;5031342;28;20423;-39
2022/11/21 13:25:03;;;;;;;0.50;0.50;;;;;;;;;;5031723;28;20112;-39
2022/11/21 13:27:34;;;;;;;0.50;0.50;;;;;;;;;;5031404;28;20022;-40
2022/11/21 13:30:05;;;;;;;0.52;0.32;;;;;;;;;;5031668;28;20491;-40
2022/11/21 13:32:37;;;;;;;1.35;0.68;;;;;;;;;;5031323;28;20025;-39
2022/11/21 13:35:22;;;;;;;0.80;0.80;;;;;;;;;;5031274;28;20040;-39
2022/11/21 13:37:48;;;;;;;0.47;0.47;;;;;;;;;;5029773;28;20091;-39
2022/11/21 13:40:26;;;;;;;0.47;0.47;;;;;;;;;;5031312;28;20022;-39
2022/11/21 13:43:04;;;;;;;0.98;0.82;;;;;;;;;;5031461;28;20384;-40
2022/11/21 13:45:42;;;;;;;0.40;0.40;;;;;;;;;;5031316;28;20095;-39
2022/11/21 13:48:26;;;;;;;1.95;1.02;;;;;;;;;;5031246;28;20080;-40
2022/11/21 13:50:55;;;;;;;0.70;0.60;;;;;;;;;;5031122;28;20038;-39
2022/11/21 13:53:28;;;;;;;0.93;0.75;;;;;;;;;;5031307;28;20072;-40
2022/11/21 13:56:10;;;;;;;1.23;0.68;;;;;;;;;;5030202;28;20041;-39
2022/11/21 13:59:11;;;;;;;1.08;1.02;;;;;;;;;;5031192;28;20060;-40
2022/11/21 14:02:06;;;;;;;1.50;0.90;;;;;;;;;;5032520;28;20033;-39
2022/11/21 14:04:50;;;;;;;0.93;0.82;;;;;;;;;;4981005;28;20246;-40
2022/11/21 14:07:21;;;;;;;1.60;1.30;;;;;;;;;;5035035;28;20045;-40
2022/11/21 14:09:48;;;;;;;0.80;0.80;;;;;;;;;;5034936;28;20021;-40
2022/11/21 14:12:26;;;;;;;1.80;1.23;;;;;;;;;;5034911;28;20025;-40
2022/11/21 14:15:18;;;;;;;2.55;1.63;;;;;;;;;;5035099;28;20030;-39
2022/11/21 14:17:46;;;;;;;2.50;1.67;;;;;;;;;;5034354;28;20137;-40
2022/11/21 14:20:17;;;;;;;1.10;0.90;;;;;;;;;;5035078;28;20014;-40
2022/11/21 14:22:46;;;;;;;1.45;1.35;;;;;;;;;;5034816;28;20037;-40
2022/11/21 14:25:16;;;;;;;3.42;1.77;;;;;;;;;;5034721;28;20376;-39
2022/11/21 14:27:44;;;;;;;3.90;1.45;;;;;;;;;;5034543;28;20051;-40
2022/11/21 14:30:25;;;;;;;4.45;2.63;;;;;;;;;;5034506;28;20100;-40
2022/11/21 14:32:50;;;;;;;2.88;1.85;;;;;;;;;;5034655;28;20041;-40
2022/11/21 14:35:20;;;;;;;2.88;1.52;;;;;;;;;;5034510;28;20045;-40
2022/11/21 14:37:46;;;;;;;2.33;1.60;;;;;;;;;;5034208;28;20468;-39
2022/11/21 14:40:13;;;;;;;2.65;1.77;;;;;;;;;;5034480;28;20072;-39
2022/11/21 14:42:38;;;;;;;5.10;2.22;;;;;;;;;;5034408;28;20025;-40
2022/11/21 14:45:04;;;;;;;3.53;1.88;;;;;;;;;;5034458;28;20026;-40
2022/11/21 14:47:30;;;;;;;4.78;1.73;;;;;;;;;;5034281;28;20426;-39
2022/11/21 14:49:55;;;;;;;4.60;2.03;;;;;;;;;;5033984;28;20057;-40
2022/11/21 14:52:31;;;;;;;2.55;1.63;;;;;;;;;;5034362;28;20033;-39
2022/11/21 14:54:58;;;;;;;4.05;2.03;;;;;;;;;;5034319;28;20103;-39
2022/11/21 14:57:43;;;;;;;3.60;2.17;;;;;;;;;;5032756;28;20471;-39
2022/11/21 15:00:13;;;;;;;2.75;2.13;;;;;;;;;;5034072;28;20091;-39
2022/11/21 15:02:38;;;;;;;3.20;1.83;;;;;;;;;;5033920;28;20163;-40
2022/11/21 15:05:06;;;;;;;2.08;1.70;;;;;;;;;;5033863;28;20116;-40
2022/11/21 15:07:49;;;;;;;5.68;2.38;;;;;;;;;;5033931;28;20623;-39
2022/11/21 15:10:16;;;;;;;2.28;1.85;;;;;;;;;;5033971;28;20033;-40
2022/11/21 15:12:42;;;;;;;3.25;1.95;;;;;;;;;;5033917;28;20018;-39
2022/11/21 15:15:24;;;;;;;5.55;2.13;;;;;;;;;;5034027;28;20098;-39
2022/11/21 15:17:54;;;;;;;6.18;2.45;;;;;;;;;;5032268;28;20286;-40
2022/11/21 15:20:20;;;;;;;3.42;1.98;;;;;;;;;;5033594;28;20025;-39
2022/11/21 15:22:46;;;;;;;3.00;1.83;;;;;;;;;;5033457;28;20043;-39